createdAt,value
2016-12-05T00:02:02.280Z,0.24
2016-12-05T00:04:57.098Z,0.20
2016-12-05T00:07:52.284Z,0.10
2016-12-05T00:10:46.885Z,0.09
2016-12-05T00:13:41.745Z,0.06
2016-12-05T00:16:36.518Z,0.96
2016-12-05T00:19:31.265Z,0.91
2016-12-05T00:22:26.068Z,0.87
2016-12-05T00:25:20.869Z,0.88
2016-12-05T00:28:15.662Z,0.87
2016-12-05T00:31:10.452Z,0.90
2016-12-05T00:34:05.261Z,0.88
2016-12-05T00:36:59.996Z,0.85
2016-12-05T00:39:54.840Z,0.87
2016-12-05T00:42:49.641Z,0.86
2016-12-05T00:45:44.458Z,0.92
2016-12-05T00:48:39.291Z,0.95
2016-12-05T00:51:34.109Z,0.99
2016-12-05T00:54:28.902Z,0.04
2016-12-05T00:57:23.671Z,0.07
2016-12-05T01:00:18.515Z,0.09
2016-12-05T01:03:13.300Z,0.08
2016-12-05T01:06:08.093Z,0.06
2016-12-05T01:09:02.882Z,0.05
2016-12-05T01:11:57.678Z,0.07
2016-12-05T01:14:52.547Z,0.10
2016-12-05T01:17:47.388Z,0.09
2016-12-05T01:20:42.163Z,0.03
2016-12-05T01:23:36.984Z,0.04
2016-12-05T01:26:31.734Z,0.07
2016-12-05T01:29:26.668Z,0.09
2016-12-05T01:32:21.430Z,0.10
2016-12-05T01:35:16.164Z,0.11
2016-12-05T01:38:10.884Z,0.13
2016-12-05T01:41:05.621Z,0.14
2016-12-05T01:44:00.397Z,0.17
2016-12-05T01:46:55.285Z,0.17
2016-12-05T01:49:50.044Z,0.18
2016-12-05T01:52:44.898Z,0.21
2016-12-05T01:55:39.696Z,0.19
2016-12-05T01:58:34.488Z,0.20
2016-12-05T02:01:29.357Z,0.20
2016-12-05T02:04:24.024Z,0.19
2016-12-05T02:07:18.768Z,0.20
2016-12-05T02:10:13.647Z,0.18
2016-12-05T02:13:08.496Z,0.12
2016-12-05T02:16:03.239Z,0.09
2016-12-05T02:18:58.043Z,0.95
2016-12-05T02:21:52.843Z,0.93
2016-12-05T02:24:47.642Z,0.86
2016-12-05T02:27:42.501Z,0.87
2016-12-05T02:30:37.301Z,0.88
2016-12-05T02:33:32.200Z,0.80
2016-12-05T02:36:27.011Z,0.78
2016-12-05T02:39:21.762Z,0.76
2016-12-05T02:42:16.623Z,0.74
2016-12-05T02:45:11.349Z,0.73
2016-12-05T02:48:06.074Z,0.76
2016-12-05T02:51:00.945Z,0.78
2016-12-05T02:53:55.813Z,0.80
2016-12-05T02:56:50.683Z,0.80
2016-12-05T02:59:45.477Z,0.77
2016-12-05T03:02:40.291Z,0.74
2016-12-05T03:05:35.147Z,0.71
2016-12-05T03:08:30.051Z,0.73
2016-12-05T03:11:24.954Z,0.78
2016-12-05T03:14:19.843Z,0.80
2016-12-05T03:17:14.526Z,0.81
2016-12-05T03:20:09.327Z,0.83
2016-12-05T03:23:04.171Z,0.83
2016-12-05T03:25:59.002Z,0.83
2016-12-05T03:28:53.899Z,0.84
2016-12-05T03:31:48.619Z,0.85
2016-12-05T03:34:43.381Z,0.86
2016-12-05T03:37:38.224Z,0.88
2016-12-05T03:40:33.157Z,0.89
2016-12-05T03:43:27.934Z,0.89
2016-12-05T03:46:22.669Z,0.86
2016-12-05T03:49:17.512Z,0.79
2016-12-05T03:52:12.337Z,0.73
2016-12-05T03:55:07.173Z,0.68
2016-12-05T03:58:01.934Z,0.65
2016-12-05T04:00:56.734Z,0.66
2016-12-05T04:03:51.655Z,0.64
2016-12-05T04:06:46.334Z,0.63
2016-12-05T04:09:41.153Z,0.65
2016-12-05T04:12:35.928Z,0.69
2016-12-05T04:15:30.694Z,0.71
2016-12-05T04:18:25.583Z,0.75
2016-12-05T04:21:20.367Z,0.75
2016-12-05T04:24:15.168Z,0.73
2016-12-05T04:27:09.953Z,0.72
2016-12-05T04:30:04.733Z,0.71
2016-12-05T04:32:59.480Z,0.67
2016-12-05T04:35:54.327Z,0.60
2016-12-05T04:38:49.126Z,0.52
2016-12-05T04:41:43.886Z,0.45
2016-12-05T04:44:38.743Z,0.39
2016-12-05T04:47:33.481Z,0.29
2016-12-05T04:50:28.298Z,0.31
2016-12-05T04:53:23.156Z,0.35
2016-12-05T04:56:17.895Z,0.38
2016-12-05T04:59:12.722Z,0.39
2016-12-05T05:02:07.462Z,0.37
2016-12-05T05:05:02.343Z,0.35
2016-12-05T05:07:57.110Z,0.40
2016-12-05T05:10:51.960Z,0.38
2016-12-05T05:13:46.733Z,0.33
2016-12-05T05:16:41.464Z,0.27
2016-12-05T05:19:36.206Z,0.25
2016-12-05T05:22:30.953Z,0.29
2016-12-05T05:25:25.660Z,0.32
2016-12-05T05:28:20.519Z,0.33
2016-12-05T05:31:15.153Z,0.30
2016-12-05T05:34:10.006Z,0.30
2016-12-05T05:37:04.739Z,0.29
2016-12-05T05:39:59.510Z,0.25
2016-12-05T05:42:54.225Z,0.15
2016-12-05T05:45:48.983Z,0.09
2016-12-05T05:48:43.812Z,0.01
2016-12-05T05:51:38.485Z,-1.86
2016-12-05T05:54:33.336Z,-1.76
2016-12-05T05:57:27.986Z,-1.66
2016-12-05T06:00:22.768Z,-1.72
2016-12-05T06:03:17.508Z,-1.73
2016-12-05T06:06:12.193Z,-1.72
2016-12-05T06:09:06.889Z,-1.73
2016-12-05T06:12:01.656Z,-1.72
2016-12-05T06:14:56.381Z,-1.71
2016-12-05T06:17:51.172Z,-1.72
2016-12-05T06:20:45.944Z,-1.75
2016-12-05T06:23:40.694Z,-1.78
2016-12-05T06:26:35.452Z,-1.76
2016-12-05T06:29:30.205Z,-1.77
2016-12-05T06:32:24.869Z,-1.77
2016-12-05T06:35:19.645Z,-1.81
2016-12-05T06:38:14.329Z,-1.83
2016-12-05T06:41:09.016Z,-1.79
2016-12-05T06:44:03.738Z,-1.72
2016-12-05T06:46:58.404Z,-1.74
2016-12-05T06:49:53.237Z,-1.71
2016-12-05T06:52:48.007Z,-1.66
2016-12-05T06:55:42.683Z,-1.64
2016-12-05T06:58:37.278Z,-1.61
2016-12-05T07:01:32.094Z,-1.57
2016-12-05T07:04:26.813Z,-1.59
2016-12-05T07:07:21.606Z,-1.60
2016-12-05T07:10:16.388Z,-1.58
2016-12-05T07:13:11.182Z,-1.51
2016-12-05T07:16:05.807Z,-1.48
2016-12-05T07:19:00.510Z,-1.47
2016-12-05T07:21:55.243Z,-1.43
2016-12-05T07:24:49.906Z,-1.45
2016-12-05T07:27:44.602Z,-1.42
2016-12-05T07:30:39.415Z,-1.42
2016-12-05T07:33:34.102Z,-1.26
2016-12-05T07:36:28.812Z,-1.19
2016-12-05T07:39:23.512Z,-1.14
2016-12-05T07:42:18.396Z,-1.19
2016-12-05T07:45:13.128Z,-1.26
2016-12-05T07:48:07.828Z,-1.28
2016-12-05T07:51:02.511Z,-1.32
2016-12-05T07:53:57.344Z,-1.33
2016-12-05T07:56:52.096Z,-1.37
2016-12-05T07:59:46.924Z,-1.34
2016-12-05T08:02:41.661Z,-1.28
2016-12-05T08:05:36.344Z,-1.30
2016-12-05T08:08:31.041Z,-1.38
2016-12-05T08:11:25.855Z,-1.40
2016-12-05T08:14:20.555Z,-1.44
2016-12-05T08:17:15.311Z,-1.49
2016-12-05T08:20:10.065Z,-1.55
2016-12-05T08:23:04.944Z,-1.64
2016-12-05T08:25:59.666Z,-1.67
2016-12-05T08:28:54.416Z,-1.66
2016-12-05T08:31:49.236Z,-1.66
2016-12-05T08:34:44.008Z,-1.64
2016-12-05T08:37:38.848Z,-1.60
2016-12-05T08:40:33.610Z,-1.58
2016-12-05T08:43:28.343Z,-1.66
2016-12-05T08:46:23.163Z,-1.77
2016-12-05T08:49:17.940Z,-1.91
2016-12-05T08:52:12.754Z,0.05
2016-12-05T08:55:07.595Z,0.07
2016-12-05T08:58:02.428Z,-1.00
2016-12-05T09:00:57.255Z,0.05
2016-12-05T09:03:52.135Z,0.61
2016-12-05T09:06:47.060Z,0.61
2016-12-05T09:09:42.356Z,1.08
2016-12-05T09:12:37.458Z,1.57
2016-12-05T09:15:32.710Z,2.29
2016-12-05T09:18:28.081Z,2.92
2016-12-05T09:21:23.395Z,3.62
2016-12-05T09:24:18.779Z,4.13
2016-12-05T09:27:14.193Z,4.40
2016-12-05T09:30:09.588Z,4.87
2016-12-05T09:33:05.083Z,5.24
2016-12-05T09:36:00.527Z,5.64
2016-12-05T09:38:55.861Z,6.19
2016-12-05T09:41:51.350Z,6.62
2016-12-05T09:44:46.788Z,6.51
2016-12-05T09:47:42.062Z,6.36
2016-12-05T09:50:37.256Z,6.69
2016-12-05T09:53:32.366Z,6.59
2016-12-05T09:56:27.554Z,6.36
2016-12-05T09:59:22.765Z,5.94
2016-12-05T10:02:17.767Z,5.76
2016-12-05T10:05:12.775Z,5.61
2016-12-05T10:08:07.804Z,5.42
2016-12-05T10:11:02.809Z,5.28
2016-12-05T10:13:57.911Z,5.06
2016-12-05T10:16:52.944Z,4.93
2016-12-05T10:19:48.023Z,4.70
2016-12-05T10:22:42.982Z,4.37
2016-12-05T10:25:38.048Z,4.23
2016-12-05T10:28:33.039Z,4.07
2016-12-05T10:31:28.012Z,3.93
2016-12-05T10:34:22.928Z,3.67
2016-12-05T10:37:17.911Z,3.46
2016-12-05T10:40:12.880Z,3.27
2016-12-05T10:43:07.797Z,3.03
2016-12-05T10:46:02.743Z,2.81
2016-12-05T10:48:57.680Z,2.64
2016-12-05T10:51:52.517Z,2.37
2016-12-05T10:54:47.362Z,2.28
2016-12-05T10:57:42.180Z,2.19
2016-12-05T11:00:37.107Z,2.05
2016-12-05T11:03:31.943Z,1.96
2016-12-05T11:06:26.852Z,1.83
2016-12-05T11:09:21.725Z,1.73
2016-12-05T11:12:16.652Z,1.66
2016-12-05T11:15:11.523Z,1.60
2016-12-05T11:18:06.370Z,1.44
2016-12-05T11:21:01.243Z,1.33
2016-12-05T11:23:56.087Z,1.26
2016-12-05T11:26:50.837Z,1.23
2016-12-05T11:29:45.686Z,1.20
2016-12-05T11:32:40.402Z,1.15
2016-12-05T11:35:35.274Z,1.11
2016-12-05T11:38:30.230Z,1.07
2016-12-05T11:41:24.940Z,1.02
2016-12-05T11:44:19.709Z,0.97
2016-12-05T11:47:14.535Z,0.91
2016-12-05T11:50:09.370Z,0.86
2016-12-05T11:53:04.244Z,0.85
2016-12-05T11:55:59.069Z,0.85
2016-12-05T11:58:53.802Z,0.79
2016-12-05T12:01:48.704Z,0.75
2016-12-05T12:04:43.552Z,0.74
2016-12-05T12:07:38.256Z,0.71
2016-12-05T12:10:33.110Z,0.68
2016-12-05T12:13:27.831Z,0.67
2016-12-05T12:16:22.586Z,0.65
2016-12-05T12:19:17.381Z,0.60
2016-12-05T12:22:12.179Z,0.59
2016-12-05T12:25:07.035Z,0.63
2016-12-05T12:28:01.875Z,0.63
2016-12-05T12:30:56.614Z,0.59
2016-12-05T12:33:51.410Z,0.56
2016-12-05T12:36:46.267Z,0.55
2016-12-05T12:39:41.090Z,0.54
2016-12-05T12:42:35.942Z,0.55
2016-12-05T12:45:30.822Z,0.55
2016-12-05T12:48:25.692Z,0.52
2016-12-05T12:51:20.449Z,0.49
2016-12-05T12:54:15.293Z,0.48
2016-12-05T12:57:10.019Z,0.46
2016-12-05T13:00:04.878Z,0.52
2016-12-05T13:02:59.714Z,0.53
2016-12-05T13:05:54.572Z,0.54
2016-12-05T13:08:49.413Z,0.50
2016-12-05T13:11:44.232Z,0.51
2016-12-05T13:14:39.197Z,0.52
2016-12-05T13:17:34.013Z,0.51
2016-12-05T13:20:28.686Z,0.53
2016-12-05T13:23:23.458Z,0.52
2016-12-05T13:26:18.295Z,0.52
2016-12-05T13:29:13.055Z,0.48
2016-12-05T13:32:07.894Z,0.42
2016-12-05T13:35:02.597Z,0.38
2016-12-05T13:37:57.456Z,0.37
2016-12-05T13:40:52.212Z,0.36
2016-12-05T13:43:46.981Z,0.37
2016-12-05T13:46:41.742Z,0.31
2016-12-05T13:49:36.592Z,0.25
2016-12-05T13:52:31.374Z,0.23
2016-12-05T13:55:26.174Z,0.20
2016-12-05T13:58:20.914Z,0.17
2016-12-05T14:01:15.774Z,0.12
2016-12-05T14:04:10.611Z,0.10
2016-12-05T14:07:05.429Z,0.09
2016-12-05T14:10:00.202Z,0.08
2016-12-05T14:12:55.005Z,0.03
2016-12-05T14:15:49.804Z,0.94
2016-12-05T14:18:44.577Z,0.87
2016-12-05T14:21:39.373Z,0.80
2016-12-05T14:24:34.126Z,0.74
2016-12-05T14:27:28.800Z,0.68
2016-12-05T14:30:23.578Z,0.61
2016-12-05T14:33:18.320Z,0.54
2016-12-05T14:36:13.029Z,0.46
2016-12-05T14:39:07.768Z,0.39
2016-12-05T14:42:02.579Z,0.31
2016-12-05T14:44:57.312Z,0.23
2016-12-05T14:47:51.956Z,0.14
2016-12-05T14:50:46.714Z,0.05
2016-12-05T14:53:41.509Z,-1.95
2016-12-05T14:56:36.162Z,-1.87
2016-12-05T14:59:30.869Z,-1.79
2016-12-05T15:02:25.585Z,-1.73
2016-12-05T15:05:20.297Z,-1.67
2016-12-05T15:08:14.929Z,-1.63
2016-12-05T15:11:09.690Z,-1.55
2016-12-05T15:14:04.435Z,-1.48
2016-12-05T15:16:59.174Z,-1.40
2016-12-05T15:19:53.921Z,-1.36
2016-12-05T15:22:48.596Z,-1.29
2016-12-05T15:25:43.278Z,-1.29
2016-12-05T15:28:37.987Z,-1.27
2016-12-05T15:31:32.709Z,-1.23
2016-12-05T15:34:27.375Z,-1.18
2016-12-05T15:37:21.964Z,-1.14
2016-12-05T15:40:16.620Z,-1.10
2016-12-05T15:43:11.139Z,-1.02
2016-12-05T15:46:05.811Z,-2.00
2016-12-05T15:49:00.414Z,-2.96
2016-12-05T15:51:55.059Z,-2.94
2016-12-05T15:54:49.666Z,-2.90
2016-12-05T15:57:44.296Z,-2.82
2016-12-05T16:00:38.763Z,-2.75
2016-12-05T16:03:33.368Z,-2.73
2016-12-05T16:06:27.994Z,-2.67
2016-12-05T16:09:22.678Z,-2.63
2016-12-05T16:12:17.360Z,-2.57
2016-12-05T16:15:11.995Z,-2.57
2016-12-05T16:18:06.571Z,-2.59
2016-12-05T16:21:01.055Z,-2.56
2016-12-05T16:23:55.590Z,-2.47
2016-12-05T16:26:50.164Z,-2.44
2016-12-05T16:29:44.835Z,-2.43
2016-12-05T16:32:39.455Z,-2.47
2016-12-05T16:35:34.135Z,-2.48
2016-12-05T16:38:28.864Z,-2.45
2016-12-05T16:41:23.468Z,-2.42
2016-12-05T16:44:18.059Z,-2.38
2016-12-05T16:47:12.763Z,-2.33
2016-12-05T16:50:07.360Z,-2.30
2016-12-05T16:53:02.004Z,-2.34
2016-12-05T16:55:56.691Z,-2.39
2016-12-05T16:58:51.365Z,-2.46
2016-12-05T17:01:46.067Z,-2.51
2016-12-05T17:04:40.709Z,-2.56
2016-12-05T17:07:35.366Z,-2.61
2016-12-05T17:10:30.086Z,-2.63
2016-12-05T17:13:24.772Z,-2.62
2016-12-05T17:16:19.469Z,-2.61
2016-12-05T17:19:14.091Z,-2.60
2016-12-05T17:22:08.770Z,-2.56
2016-12-05T17:25:03.421Z,-2.57
2016-12-05T17:27:58.086Z,-2.56
2016-12-05T17:30:52.808Z,-2.52
2016-12-05T17:33:47.405Z,-2.53
2016-12-05T17:36:42.119Z,-2.48
2016-12-05T17:39:36.736Z,-2.43
2016-12-05T17:42:31.239Z,-2.38
2016-12-05T17:45:25.927Z,-2.35
2016-12-05T17:48:20.534Z,-2.29
2016-12-05T17:51:15.067Z,-2.29
2016-12-05T17:54:09.815Z,-2.23
2016-12-05T17:57:04.548Z,-2.18
2016-12-05T17:59:59.129Z,-2.15
2016-12-05T18:02:53.720Z,-2.10
2016-12-05T18:05:48.405Z,-2.12
2016-12-05T18:08:43.064Z,-2.10
2016-12-05T18:11:37.701Z,-2.05
2016-12-05T18:14:32.343Z,-2.04
2016-12-05T18:17:26.975Z,-2.05
2016-12-05T18:20:21.536Z,-2.08
2016-12-05T18:23:16.221Z,-2.04
2016-12-05T18:26:10.785Z,-2.02
2016-12-05T18:29:05.417Z,-2.03
2016-12-05T18:32:00.094Z,-2.02
2016-12-05T18:34:54.774Z,-3.00
2016-12-05T18:37:49.326Z,-3.95
2016-12-05T18:40:44.001Z,-3.93
2016-12-05T18:43:38.586Z,-3.90
2016-12-05T18:46:33.137Z,-3.90
2016-12-05T18:49:27.770Z,-3.88
2016-12-05T18:52:22.429Z,-3.86
2016-12-05T18:55:17.059Z,-3.88
2016-12-05T18:58:11.631Z,-3.90
2016-12-05T19:01:06.246Z,-3.86
2016-12-05T19:04:00.864Z,-3.85
2016-12-05T19:06:55.495Z,-3.87
2016-12-05T19:09:50.176Z,-3.86
2016-12-05T19:12:44.814Z,-3.85
2016-12-05T19:15:39.316Z,-3.85
2016-12-05T19:18:33.843Z,-3.84
2016-12-05T19:21:28.406Z,-3.78
2016-12-05T19:24:23.004Z,-3.77
2016-12-05T19:27:17.466Z,-3.78
2016-12-05T19:30:12.072Z,-3.75
2016-12-05T19:33:06.700Z,-3.80
2016-12-05T19:36:01.241Z,-3.80
2016-12-05T19:38:55.848Z,-3.84
2016-12-05T19:41:50.481Z,-3.85
2016-12-05T19:44:45.103Z,-3.90
2016-12-05T19:47:39.754Z,-3.89
2016-12-05T19:50:34.367Z,-3.90
2016-12-05T19:53:28.995Z,-3.92
2016-12-05T19:56:23.630Z,-3.96
2016-12-05T19:59:18.246Z,-3.92
2016-12-05T20:02:12.850Z,-3.89
2016-12-05T20:05:07.430Z,-3.98
2016-12-05T20:08:02.095Z,-2.03
2016-12-05T20:10:56.665Z,-3.00
2016-12-05T20:13:51.334Z,-3.96
2016-12-05T20:16:46.015Z,-3.99
2016-12-05T20:19:40.550Z,-2.01
2016-12-05T20:22:35.029Z,-2.01
2016-12-05T20:25:29.745Z,-3.00
2016-12-05T20:28:24.344Z,-3.00
2016-12-05T20:31:18.941Z,-3.98
2016-12-05T20:34:13.579Z,-3.98
2016-12-05T20:37:08.281Z,-3.98
2016-12-05T20:40:02.869Z,-3.98
2016-12-05T20:42:57.592Z,-3.98
2016-12-05T20:45:52.153Z,-2.03
2016-12-05T20:48:46.761Z,-2.06
2016-12-05T20:51:41.364Z,-2.05
2016-12-05T20:54:35.978Z,-2.10
2016-12-05T20:57:30.672Z,-2.11
2016-12-05T21:00:25.315Z,-2.10
2016-12-05T21:03:19.831Z,-2.14
2016-12-05T21:06:14.478Z,-2.17
2016-12-05T21:09:09.134Z,-2.22
2016-12-05T21:12:03.812Z,-2.31
2016-12-05T21:14:58.435Z,-2.38
2016-12-05T21:17:53.150Z,-2.48
2016-12-05T21:20:47.790Z,-2.57
2016-12-05T21:23:42.477Z,-2.63
2016-12-05T21:26:37.226Z,-2.68
2016-12-05T21:29:31.847Z,-2.71
2016-12-05T21:32:26.481Z,-2.74
2016-12-05T21:35:21.133Z,-2.76
2016-12-05T21:38:15.838Z,-2.81
2016-12-05T21:41:10.520Z,-2.85
2016-12-05T21:44:05.220Z,-2.93
2016-12-05T21:46:59.925Z,-2.99
2016-12-05T21:49:54.589Z,-1.08
2016-12-05T21:52:49.288Z,-1.17
2016-12-05T21:55:44.109Z,-1.25
2016-12-05T21:58:38.759Z,-1.35
2016-12-05T22:01:33.465Z,-1.44
2016-12-05T22:04:28.273Z,-1.53
2016-12-05T22:07:22.958Z,-1.57
2016-12-05T22:10:17.901Z,-1.63
2016-12-05T22:13:12.506Z,-1.72
2016-12-05T22:16:07.329Z,-1.84
2016-12-05T22:19:02.010Z,-1.89
2016-12-05T22:21:56.760Z,-1.91
2016-12-05T22:24:51.546Z,-1.95
2016-12-05T22:27:46.174Z,-1.97
2016-12-05T22:30:40.926Z,-1.99
2016-12-05T22:33:35.733Z,0.02
2016-12-05T22:36:30.501Z,0.06
2016-12-05T22:39:25.327Z,0.08
2016-12-05T22:42:20.123Z,0.12
2016-12-05T22:45:14.932Z,0.17
2016-12-05T22:48:09.750Z,0.21
2016-12-05T22:51:04.523Z,0.22
2016-12-05T22:53:59.230Z,0.22
2016-12-05T22:56:53.901Z,0.26
2016-12-05T22:59:48.693Z,0.27
2016-12-05T23:02:43.487Z,0.31
2016-12-05T23:05:38.310Z,0.36
2016-12-05T23:08:33.082Z,0.38
2016-12-05T23:11:27.777Z,0.42
2016-12-05T23:14:22.608Z,0.44
2016-12-05T23:17:17.370Z,0.44
2016-12-05T23:20:12.144Z,0.45
2016-12-05T23:23:06.865Z,0.43
2016-12-05T23:26:01.591Z,0.45
2016-12-05T23:28:56.452Z,0.49
2016-12-05T23:31:51.334Z,0.52
2016-12-05T23:34:46.093Z,0.52
2016-12-05T23:37:40.925Z,0.54
2016-12-05T23:40:35.770Z,0.58
2016-12-05T23:43:30.548Z,0.61
2016-12-05T23:46:25.242Z,0.65
2016-12-05T23:49:19.953Z,0.68
2016-12-05T23:52:14.811Z,0.71
2016-12-05T23:55:09.655Z,0.74
2016-12-05T23:58:04.489Z,0.74
